Time;durP1;ratioP1;P1;durP2;ratioP2;P2;SDS_P1;SDS_P2;PMS_P1;PMS_P2;Temp;Humidity;BMP_temperature;BMP_pressure;BME280_temperature;BME280_humidity;BME280_pressure;Samples;Min_cycle;Max_cycle;Signal;HPM_P1;HPM_P2
2022/04/07 00:01:37;;;;;;;;;;;21.20;34.40;;;;;;498336;239;1324;-38
2022/04/07 00:03:39;;;;;;;;;;;21.20;34.40;;;;;;498609;239;2157;-38
2022/04/07 00:05:40;;;;;;;;;;;21.30;34.40;;;;;;498917;239;1077;-38
2022/04/07 00:07:41;;;;;;;;;;;21.20;34.40;;;;;;498865;239;1163;-38
2022/04/07 00:09:43;;;;;;;;;;;21.30;34.40;;;;;;498786;239;1091;-38
2022/04/07 00:11:44;;;;;;;;;;;21.20;34.40;;;;;;498354;239;1231;-38
2022/04/07 00:13:45;;;;;;;;;;;21.20;34.40;;;;;;498867;239;1042;-38
2022/04/07 00:15:47;;;;;;;;;;;21.20;34.40;;;;;;498861;239;1157;-38
2022/04/07 00:17:48;;;;;;;;;;;21.20;34.40;;;;;;498787;239;1283;-38
2022/04/07 00:19:50;;;;;;;;;;;21.20;34.40;;;;;;498923;239;1078;-38
2022/04/07 00:21:51;;;;;;;;;;;21.20;34.50;;;;;;498349;239;2126;-38
2022/04/07 00:23:52;;;;;;;;;;;21.20;34.40;;;;;;498646;239;1120;-38
2022/04/07 00:25:53;;;;;;;;;;;21.20;34.40;;;;;;498844;239;1099;-38
2022/04/07 00:27:55;;;;;;;;;;;21.20;34.40;;;;;;498838;239;1105;-38
2022/04/07 00:29:56;;;;;;;;;;;21.20;34.40;;;;;;498915;239;1016;-38
2022/04/07 00:31:57;;;;;;;;;;;21.20;34.50;;;;;;498605;239;1395;-38
2022/04/07 00:33:59;;;;;;;;;;;21.20;34.40;;;;;;498595;239;1267;-38
2022/04/07 00:36:00;;;;;;;;;;;21.20;34.40;;;;;;498412;239;1015;-38
2022/04/07 00:38:01;;;;;;;;;;;21.20;34.50;;;;;;498895;239;1048;-38
2022/04/07 00:40:02;;;;;;;;;;;21.20;34.50;;;;;;498899;239;1093;-38
2022/04/07 00:42:04;;;;;;;;;;;21.20;34.50;;;;;;498835;239;2126;-38
2022/04/07 00:44:08;;;;;;;;;;;21.20;34.40;;;;;;498378;239;1147;-38
2022/04/07 00:46:07;;;;;;;;;;;21.20;34.40;;;;;;498690;239;1349;-38
2022/04/07 00:48:08;;;;;;;;;;;21.20;34.50;;;;;;498869;239;1076;-38
2022/04/07 00:50:11;;;;;;;;;;;21.20;34.40;;;;;;498457;239;1060;-38
2022/04/07 00:52:13;;;;;;;;;;;21.20;34.40;;;;;;498418;239;1139;-38
2022/04/07 00:54:14;;;;;;;;;;;21.20;34.50;;;;;;498904;239;1048;-38
2022/04/07 00:56:15;;;;;;;;;;;21.20;34.50;;;;;;498837;239;1237;-38
2022/04/07 00:58:17;;;;;;;;;;;21.20;34.50;;;;;;498863;239;1568;-38
2022/04/07 01:00:18;;;;;;;;;;;21.10;34.50;;;;;;498923;239;1078;-38
2022/04/07 01:02:19;;;;;;;;;;;21.20;34.50;;;;;;498805;239;2130;-38
2022/04/07 01:04:21;;;;;;;;;;;21.20;34.50;;;;;;498664;239;1201;-38
2022/04/07 01:06:22;;;;;;;;;;;21.20;34.50;;;;;;498672;239;1128;-38
2022/04/07 01:08:23;;;;;;;;;;;21.30;34.50;;;;;;498938;239;1059;-38
2022/04/07 01:10:25;;;;;;;;;;;21.20;34.40;;;;;;498911;239;1136;-38
2022/04/07 01:12:26;;;;;;;;;;;21.20;34.50;;;;;;498308;239;1184;-38
2022/04/07 01:14:27;;;;;;;;;;;21.20;34.40;;;;;;498461;239;1084;-38
2022/04/07 01:16:29;;;;;;;;;;;21.20;34.50;;;;;;498852;239;1308;-38
2022/04/07 01:18:30;;;;;;;;;;;21.20;34.40;;;;;;498831;239;2090;-38
2022/04/07 01:20:31;;;;;;;;;;;21.30;34.40;;;;;;498907;239;1069;-38
2022/04/07 01:22:32;;;;;;;;;;;21.30;34.40;;;;;;498554;239;2118;-38
2022/04/07 01:24:34;;;;;;;;;;;21.20;34.40;;;;;;498469;239;1003;-38
2022/04/07 01:26:37;;;;;;;;;;;21.20;34.40;;;;;;498722;239;1392;-38
2022/04/07 01:28:37;;;;;;;;;;;21.20;34.40;;;;;;498377;239;1446;-39
2022/04/07 01:30:38;;;;;;;;;;;21.30;34.40;;;;;;498909;239;1044;-38
2022/04/07 01:32:40;;;;;;;;;;;21.20;34.50;;;;;;498895;238;1181;-38
2022/04/07 01:34:41;;;;;;;;;;;21.20;34.50;;;;;;498644;239;1177;-38
2022/04/07 01:36:42;;;;;;;;;;;21.20;34.40;;;;;;498829;239;1326;-38
2022/04/07 01:38:44;;;;;;;;;;;21.20;34.50;;;;;;498917;239;1127;-38
2022/04/07 01:40:45;;;;;;;;;;;21.20;34.50;;;;;;498420;239;1040;-38
2022/04/07 01:42:46;;;;;;;;;;;21.20;34.50;;;;;;498353;239;2169;-38
2022/04/07 01:44:47;;;;;;;;;;;21.20;34.40;;;;;;498935;239;1069;-38
2022/04/07 01:46:51;;;;;;;;;;;21.20;34.50;;;;;;498798;239;1198;-38
2022/04/07 01:48:50;;;;;;;;;;;21.20;34.40;;;;;;498344;239;3103;-38
2022/04/07 01:50:51;;;;;;;;;;;21.30;34.40;;;;;;498836;239;1131;-38
2022/04/07 01:52:53;;;;;;;;;;;21.20;34.40;;;;;;498882;239;1153;-38
2022/04/07 01:54:54;;;;;;;;;;;21.20;34.40;;;;;;498485;239;1093;-38
2022/04/07 01:56:56;;;;;;;;;;;21.30;34.40;;;;;;498828;239;1277;-38
2022/04/07 01:58:57;;;;;;;;;;;21.20;34.40;;;;;;498925;239;1039;-38
2022/04/07 02:00:58;;;;;;;;;;;21.20;34.50;;;;;;498375;239;1260;-38
2022/04/07 02:03:00;;;;;;;;;;;21.20;34.50;;;;;;498383;239;2185;-38
2022/04/07 02:05:03;;;;;;;;;;;21.20;34.40;;;;;;498673;239;1148;-38
2022/04/07 02:07:02;;;;;;;;;;;21.20;34.50;;;;;;498309;239;1690;-38
2022/04/07 02:09:04;;;;;;;;;;;21.20;34.40;;;;;;498936;239;1024;-38
2022/04/07 02:11:05;;;;;;;;;;;21.20;34.50;;;;;;498416;239;1146;-38
2022/04/07 02:13:06;;;;;;;;;;;21.20;34.50;;;;;;498918;239;1174;-38
2022/04/07 02:15:08;;;;;;;;;;;21.20;34.50;;;;;;498951;239;1060;-38
2022/04/07 02:17:09;;;;;;;;;;;21.20;34.50;;;;;;498876;239;1181;-38
2022/04/07 02:19:10;;;;;;;;;;;21.20;34.50;;;;;;498903;239;1151;-38
2022/04/07 02:21:12;;;;;;;;;;;21.20;34.50;;;;;;498659;239;1291;-38
2022/04/07 02:23:13;;;;;;;;;;;21.20;34.40;;;;;;498889;239;2105;-39
2022/04/07 02:25:14;;;;;;;;;;;21.20;34.50;;;;;;498926;239;1023;-39
2022/04/07 02:27:16;;;;;;;;;;;21.20;34.40;;;;;;498524;239;1265;-39
2022/04/07 02:29:17;;;;;;;;;;;21.20;34.50;;;;;;498925;239;1013;-38
2022/04/07 02:31:18;;;;;;;;;;;21.20;34.50;;;;;;498685;239;1307;-38
2022/04/07 02:33:20;;;;;;;;;;;21.20;34.50;;;;;;498700;239;1086;-38
2022/04/07 02:35:21;;;;;;;;;;;21.20;34.50;;;;;;498650;239;1150;-38
2022/04/07 02:37:22;;;;;;;;;;;21.20;34.50;;;;;;498348;239;1588;-38
2022/04/07 02:39:24;;;;;;;;;;;21.20;34.50;;;;;;498464;239;1061;-38
2022/04/07 02:41:25;;;;;;;;;;;21.20;34.50;;;;;;498649;239;1111;-38
2022/04/07 02:43:26;;;;;;;;;;;21.10;34.50;;;;;;498942;239;2124;-38
2022/04/07 02:45:27;;;;;;;;;;;21.20;34.60;;;;;;498898;239;1150;-38
2022/04/07 02:47:29;;;;;;;;;;;21.20;34.60;;;;;;498827;239;1634;-38
2022/04/07 02:49:30;;;;;;;;;;;21.20;34.50;;;;;;498876;239;1068;-38
2022/04/07 02:51:31;;;;;;;;;;;21.20;34.40;;;;;;498273;239;1311;-39
2022/04/07 02:53:33;;;;;;;;;;;21.20;34.40;;;;;;498943;239;995;-38
2022/04/07 02:55:34;;;;;;;;;;;21.30;34.50;;;;;;498922;239;1120;-38
2022/04/07 02:57:35;;;;;;;;;;;21.20;34.40;;;;;;498846;239;1324;-38
2022/04/07 02:59:37;;;;;;;;;;;21.20;34.50;;;;;;498908;239;1170;-38
2022/04/07 03:01:38;;;;;;;;;;;21.20;34.50;;;;;;498519;239;1308;-38
2022/04/07 03:03:39;;;;;;;;;;;21.20;34.40;;;;;;498832;239;2113;-38
2022/04/07 03:05:41;;;;;;;;;;;21.20;34.50;;;;;;498404;239;1173;-39
2022/04/07 03:07:42;;;;;;;;;;;21.20;34.50;;;;;;498870;239;1364;-38
2022/04/07 03:09:43;;;;;;;;;;;21.20;34.50;;;;;;498921;239;973;-38
2022/04/07 03:11:46;;;;;;;;;;;21.20;34.50;;;;;;498351;239;1447;-39
2022/04/07 03:13:46;;;;;;;;;;;21.20;34.50;;;;;;498856;239;2364;-38
2022/04/07 03:15:47;;;;;;;;;;;21.20;34.50;;;;;;498929;239;1123;-39
2022/04/07 03:17:49;;;;;;;;;;;21.20;34.50;;;;;;498398;239;1069;-38
2022/04/07 03:19:50;;;;;;;;;;;21.20;34.50;;;;;;498926;239;1029;-38
2022/04/07 03:21:51;;;;;;;;;;;21.20;34.50;;;;;;498262;239;1198;-38
2022/04/07 03:23:52;;;;;;;;;;;21.20;34.50;;;;;;498888;239;2125;-38
2022/04/07 03:25:54;;;;;;;;;;;21.20;34.50;;;;;;498897;239;1620;-38
2022/04/07 03:27:55;;;;;;;;;;;21.20;34.50;;;;;;498426;239;2313;-38
2022/04/07 03:29:56;;;;;;;;;;;21.30;34.50;;;;;;498570;239;970;-38
2022/04/07 03:31:58;;;;;;;;;;;21.20;34.40;;;;;;498841;239;1161;-39
2022/04/07 03:33:59;;;;;;;;;;;21.30;34.40;;;;;;498407;239;1710;-38
2022/04/07 03:36:00;;;;;;;;;;;21.20;34.40;;;;;;498579;239;1246;-38
2022/04/07 03:38:02;;;;;;;;;;;21.30;34.50;;;;;;498422;239;1178;-38
2022/04/07 03:40:03;;;;;;;;;;;21.20;34.50;;;;;;498923;239;1053;-38
2022/04/07 03:42:04;;;;;;;;;;;21.20;34.50;;;;;;498834;239;1193;-38
2022/04/07 03:44:09;;;;;;;;;;;21.20;34.50;;;;;;498543;239;2110;-38
2022/04/07 03:46:07;;;;;;;;;;;21.20;34.50;;;;;;498205;236;2009;-38
2022/04/07 03:48:08;;;;;;;;;;;21.20;34.50;;;;;;498432;239;1073;-38
2022/04/07 03:50:10;;;;;;;;;;;21.20;34.50;;;;;;498937;239;1057;-38
2022/04/07 03:52:11;;;;;;;;;;;21.20;34.60;;;;;;498414;239;1308;-38
2022/04/07 03:54:13;;;;;;;;;;;21.20;34.50;;;;;;498968;239;967;-38
2022/04/07 03:56:13;;;;;;;;;;;21.20;34.50;;;;;;498650;239;2164;-38
2022/04/07 03:58:15;;;;;;;;;;;21.30;34.50;;;;;;498887;239;1088;-38
2022/04/07 04:00:16;;;;;;;;;;;21.20;34.40;;;;;;498864;239;1087;-38
2022/04/07 04:02:18;;;;;;;;;;;21.20;34.50;;;;;;498406;239;1193;-38
2022/04/07 04:04:20;;;;;;;;;;;21.20;34.50;;;;;;498852;239;2129;-38
2022/04/07 04:06:20;;;;;;;;;;;21.20;34.50;;;;;;498273;239;2214;-38
2022/04/07 04:08:23;;;;;;;;;;;21.20;34.50;;;;;;498360;239;1255;-38
2022/04/07 04:10:24;;;;;;;;;;;21.20;34.50;;;;;;498576;239;1410;-38
2022/04/07 04:12:26;;;;;;;;;;;21.20;34.60;;;;;;498428;239;1242;-38
2022/04/07 04:14:27;;;;;;;;;;;21.20;34.50;;;;;;498771;239;1044;-38
2022/04/07 04:16:28;;;;;;;;;;;21.20;34.40;;;;;;498798;239;1052;-38
2022/04/07 04:18:29;;;;;;;;;;;21.20;34.40;;;;;;498832;239;1049;-38
2022/04/07 04:20:30;;;;;;;;;;;21.20;34.50;;;;;;498801;239;1071;-38
2022/04/07 04:22:32;;;;;;;;;;;21.20;34.50;;;;;;498215;239;1273;-38
2022/04/07 04:24:33;;;;;;;;;;;21.20;34.50;;;;;;498773;239;2172;-38
2022/04/07 04:26:34;;;;;;;;;;;21.20;34.50;;;;;;498537;239;1191;-38
2022/04/07 04:28:36;;;;;;;;;;;21.30;34.50;;;;;;498762;239;1012;-38
2022/04/07 04:30:37;;;;;;;;;;;21.20;34.40;;;;;;498741;239;1263;-38
2022/04/07 04:32:38;;;;;;;;;;;21.20;34.50;;;;;;498715;239;1607;-38
2022/04/07 04:34:39;;;;;;;;;;;21.20;34.50;;;;;;498601;239;1248;-38
2022/04/07 04:36:41;;;;;;;;;;;21.20;34.50;;;;;;498131;239;1209;-38
2022/04/07 04:38:42;;;;;;;;;;;21.20;34.50;;;;;;498706;239;1160;-38
2022/04/07 04:40:43;;;;;;;;;;;21.20;34.50;;;;;;498743;239;1169;-38
2022/04/07 04:42:45;;;;;;;;;;;21.20;34.50;;;;;;498163;239;1133;-38
2022/04/07 04:44:46;;;;;;;;;;;21.20;34.60;;;;;;498255;239;2180;-39
2022/04/07 04:46:47;;;;;;;;;;;21.20;34.50;;;;;;497929;239;1432;-38
2022/04/07 04:48:49;;;;;;;;;;;21.20;34.60;;;;;;498374;239;1025;-38
2022/04/07 04:50:50;;;;;;;;;;;21.20;34.60;;;;;;498623;239;1336;-38
2022/04/07 04:52:52;;;;;;;;;;;21.20;34.60;;;;;;498148;239;1457;-38
2022/04/07 04:54:53;;;;;;;;;;;21.20;34.60;;;;;;498733;239;1201;-38
2022/04/07 04:56:54;;;;;;;;;;;21.20;34.50;;;;;;498196;239;1500;-38
2022/04/07 04:58:57;;;;;;;;;;;21.30;34.50;;;;;;498414;239;1069;-38
2022/04/07 05:00:57;;;;;;;;;;;21.20;34.50;;;;;;498074;239;2036;-38
2022/04/07 05:02:58;;;;;;;;;;;21.20;34.50;;;;;;498199;239;1176;-38
2022/04/07 05:05:00;;;;;;;;;;;21.20;34.50;;;;;;498318;239;2233;-38
2022/04/07 05:07:01;;;;;;;;;;;21.20;34.60;;;;;;498069;239;1199;-39
2022/04/07 05:09:02;;;;;;;;;;;21.20;34.50;;;;;;498413;239;1056;-39
2022/04/07 05:11:04;;;;;;;;;;;21.20;34.50;;;;;;498507;239;1197;-38
2022/04/07 05:13:05;;;;;;;;;;;21.20;34.50;;;;;;498132;239;1238;-38
2022/04/07 05:15:07;;;;;;;;;;;21.20;34.50;;;;;;498599;239;1085;-38
2022/04/07 05:17:08;;;;;;;;;;;21.20;34.50;;;;;;498205;239;2362;-38
2022/04/07 05:19:09;;;;;;;;;;;21.30;34.50;;;;;;498403;239;1074;-38
2022/04/07 05:21:10;;;;;;;;;;;21.20;34.40;;;;;;498110;239;1161;-38
2022/04/07 05:23:12;;;;;;;;;;;21.20;34.50;;;;;;498105;239;1214;-39
2022/04/07 05:25:13;;;;;;;;;;;21.30;34.50;;;;;;498358;239;2106;-38
2022/04/07 05:27:14;;;;;;;;;;;21.20;34.50;;;;;;497971;239;1347;-38
2022/04/07 05:29:16;;;;;;;;;;;21.20;34.50;;;;;;498149;239;1089;-38
2022/04/07 05:31:17;;;;;;;;;;;21.30;34.60;;;;;;498458;239;1336;-38
2022/04/07 05:33:18;;;;;;;;;;;21.20;34.50;;;;;;498191;239;1094;-38
2022/04/07 05:35:20;;;;;;;;;;;21.20;34.50;;;;;;498123;239;1254;-38
2022/04/07 05:37:21;;;;;;;;;;;21.20;34.50;;;;;;498105;239;1281;-38
2022/04/07 05:39:23;;;;;;;;;;;21.20;34.60;;;;;;498396;239;1074;-38
2022/04/07 05:41:24;;;;;;;;;;;21.20;34.60;;;;;;498075;239;1152;-38
2022/04/07 05:43:25;;;;;;;;;;;21.10;34.60;;;;;;498470;239;1042;-38
2022/04/07 05:45:27;;;;;;;;;;;21.20;34.60;;;;;;498383;239;2109;-38
2022/04/07 05:47:28;;;;;;;;;;;21.10;34.60;;;;;;498227;239;1144;-38
2022/04/07 05:49:29;;;;;;;;;;;21.20;34.60;;;;;;498081;239;1159;-38
2022/04/07 05:51:31;;;;;;;;;;;21.20;34.50;;;;;;497862;239;1333;-38
2022/04/07 05:53:32;;;;;;;;;;;21.20;34.50;;;;;;498018;239;1267;-38
2022/04/07 05:55:33;;;;;;;;;;;21.30;34.50;;;;;;497965;239;1239;-38
2022/04/07 05:57:35;;;;;;;;;;;21.20;34.50;;;;;;497963;239;1217;-38
2022/04/07 05:59:36;;;;;;;;;;;21.20;34.50;;;;;;498042;239;1015;-38
2022/04/07 06:01:37;;;;;;;;;;;21.20;34.50;;;;;;497943;239;1234;-38
2022/04/07 06:03:40;;;;;;;;;;;21.20;34.50;;;;;;498113;239;1068;-38
2022/04/07 06:05:40;;;;;;;;;;;21.20;34.50;;;;;;497930;239;2118;-38
2022/04/07 06:07:41;;;;;;;;;;;21.20;34.60;;;;;;498034;239;1187;-38
2022/04/07 06:09:43;;;;;;;;;;;21.20;34.50;;;;;;498059;239;1046;-38
2022/04/07 06:11:44;;;;;;;;;;;21.20;34.60;;;;;;497836;239;1288;-38
2022/04/07 06:13:45;;;;;;;;;;;21.20;34.60;;;;;;498114;239;2412;-38
2022/04/07 06:15:47;;;;;;;;;;;21.20;34.50;;;;;;497947;239;1351;-38
2022/04/07 06:17:50;;;;;;;;;;;21.20;34.50;;;;;;497920;239;1194;-38
2022/04/07 06:19:49;;;;;;;;;;;21.20;34.50;;;;;;498067;239;2182;-38
2022/04/07 06:21:51;;;;;;;;;;;21.30;34.50;;;;;;497910;239;1214;-38
2022/04/07 06:23:52;;;;;;;;;;;21.20;34.50;;;;;;497935;239;1221;-38
2022/04/07 06:25:54;;;;;;;;;;;21.20;34.60;;;;;;497727;239;2220;-38
2022/04/07 06:27:56;;;;;;;;;;;21.20;34.60;;;;;;497766;239;1046;-38
2022/04/07 06:29:57;;;;;;;;;;;21.20;34.50;;;;;;497700;239;2405;-38
2022/04/07 06:31:58;;;;;;;;;;;21.20;34.50;;;;;;497731;239;1330;-38
2022/04/07 06:33:59;;;;;;;;;;;21.30;34.50;;;;;;497740;239;1178;-38
2022/04/07 06:36:00;;;;;;;;;;;21.20;34.50;;;;;;497580;239;1136;-38
2022/04/07 06:38:02;;;;;;;;;;;21.20;34.50;;;;;;497781;239;1252;-38
2022/04/07 06:40:04;;;;;;;;;;;21.30;34.50;;;;;;498228;239;1064;-38
2022/04/07 06:42:05;;;;;;;;;;;21.30;34.50;;;;;;498052;239;1268;-38
2022/04/07 06:44:06;;;;;;;;;;;21.30;34.50;;;;;;497780;239;2189;-38
2022/04/07 06:46:07;;;;;;;;;;;21.30;34.50;;;;;;497501;239;1151;-38
2022/04/07 06:48:09;;;;;;;;;;;21.30;34.50;;;;;;497650;239;1438;-38
2022/04/07 06:50:11;;;;;;;;;;;21.20;34.50;;;;;;497940;239;1186;-38
2022/04/07 06:52:12;;;;;;;;;;;21.30;34.60;;;;;;497623;239;1295;-38
2022/04/07 06:54:13;;;;;;;;;;;21.30;34.50;;;;;;497586;239;1208;-38
2022/04/07 06:56:15;;;;;;;;;;;21.30;34.50;;;;;;497525;239;1382;-38
2022/04/07 06:58:16;;;;;;;;;;;21.20;34.50;;;;;;497635;239;1144;-38
2022/04/07 07:00:18;;;;;;;;;;;21.20;34.60;;;;;;497712;239;1071;-38
2022/04/07 07:02:19;;;;;;;;;;;21.20;34.60;;;;;;497691;239;1259;-38
2022/04/07 07:04:21;;;;;;;;;;;21.20;34.70;;;;;;497538;239;2189;-38
2022/04/07 07:06:22;;;;;;;;;;;21.20;34.60;;;;;;497535;239;1224;-38
2022/04/07 07:08:23;;;;;;;;;;;21.20;34.50;;;;;;497944;239;1147;-38
2022/04/07 07:10:25;;;;;;;;;;;21.20;34.60;;;;;;497683;239;1080;-38
2022/04/07 07:12:26;;;;;;;;;;;21.30;34.50;;;;;;497830;239;1305;-38
2022/04/07 07:14:27;;;;;;;;;;;21.30;34.50;;;;;;497614;239;2176;-38
2022/04/07 07:16:28;;;;;;;;;;;21.20;34.50;;;;;;497571;239;1237;-38
2022/04/07 07:18:30;;;;;;;;;;;21.20;34.60;;;;;;497557;239;1269;-38
2022/04/07 07:20:31;;;;;;;;;;;21.20;34.60;;;;;;497474;239;1129;-38
2022/04/07 07:22:32;;;;;;;;;;;21.30;34.60;;;;;;497511;239;1277;-38
2022/04/07 07:24:34;;;;;;;;;;;21.30;34.60;;;;;;497696;239;2197;-38
2022/04/07 07:26:35;;;;;;;;;;;21.20;34.60;;;;;;497516;239;2061;-38
2022/04/07 07:28:36;;;;;;;;;;;21.30;34.50;;;;;;497682;239;1090;-38
2022/04/07 07:30:38;;;;;;;;;;;21.20;34.50;;;;;;497515;239;1512;-38
2022/04/07 07:32:39;;;;;;;;;;;21.30;34.60;;;;;;497648;239;1127;-38
2022/04/07 07:34:40;;;;;;;;;;;21.30;34.60;;;;;;497692;239;1176;-38
2022/04/07 07:36:42;;;;;;;;;;;21.30;34.60;;;;;;497502;239;1418;-38
2022/04/07 07:38:43;;;;;;;;;;;21.20;34.50;;;;;;497593;239;1204;-38
2022/04/07 07:40:44;;;;;;;;;;;21.20;34.50;;;;;;497490;239;1553;-38
2022/04/07 07:42:47;;;;;;;;;;;21.20;34.60;;;;;;497429;239;1192;-38
2022/04/07 07:44:47;;;;;;;;;;;21.30;34.60;;;;;;497540;239;2282;-38
2022/04/07 07:46:49;;;;;;;;;;;21.20;34.50;;;;;;497513;239;1221;-38
2022/04/07 07:48:50;;;;;;;;;;;21.30;34.50;;;;;;497509;239;2210;-38
2022/04/07 07:50:51;;;;;;;;;;;21.30;34.50;;;;;;497502;239;1204;-39
2022/04/07 07:52:52;;;;;;;;;;;21.30;34.50;;;;;;497575;239;1058;-38
2022/04/07 07:54:54;;;;;;;;;;;21.30;34.50;;;;;;497511;239;1134;-38
2022/04/07 07:56:55;;;;;;;;;;;21.20;34.50;;;;;;497480;239;1541;-39
2022/04/07 07:58:57;;;;;;;;;;;21.30;34.50;;;;;;497526;239;1079;-38
2022/04/07 08:00:58;;;;;;;;;;;21.30;34.50;;;;;;497424;239;1341;-38
2022/04/07 08:03:00;;;;;;;;;;;21.30;34.50;;;;;;497521;239;1086;-38
2022/04/07 08:05:01;;;;;;;;;;;21.20;34.40;;;;;;497515;239;2181;-38
2022/04/07 08:07:02;;;;;;;;;;;21.30;34.50;;;;;;497516;239;1344;-39
2022/04/07 08:09:04;;;;;;;;;;;21.30;34.40;;;;;;497567;239;1241;-38
2022/04/07 08:11:05;;;;;;;;;;;21.20;34.40;;;;;;497427;239;1209;-38
2022/04/07 08:13:06;;;;;;;;;;;21.30;34.50;;;;;;498126;239;1065;-38
2022/04/07 08:15:08;;;;;;;;;;;21.30;34.40;;;;;;497669;239;1181;-38
2022/04/07 08:17:09;;;;;;;;;;;21.30;34.40;;;;;;497835;239;1303;-38
2022/04/07 08:19:10;;;;;;;;;;;21.30;34.30;;;;;;497877;239;1058;-38
2022/04/07 08:21:12;;;;;;;;;;;21.30;34.40;;;;;;497656;239;1220;-38
2022/04/07 08:23:13;;;;;;;;;;;21.30;34.30;;;;;;497711;239;1049;-38
2022/04/07 08:25:14;;;;;;;;;;;21.30;34.40;;;;;;497375;239;2209;-38
2022/04/07 08:27:16;;;;;;;;;;;21.30;34.40;;;;;;497242;239;1234;-38
2022/04/07 08:29:17;;;;;;;;;;;21.30;34.30;;;;;;497439;239;1020;-38
2022/04/07 08:31:18;;;;;;;;;;;21.30;34.30;;;;;;497377;239;1162;-38
2022/04/07 08:33:20;;;;;;;;;;;21.30;34.30;;;;;;497497;239;1051;-38
2022/04/07 08:35:21;;;;;;;;;;;21.30;34.30;;;;;;497354;239;1143;-38
2022/04/07 08:37:22;;;;;;;;;;;21.30;34.30;;;;;;497342;239;1221;-38
2022/04/07 08:39:24;;;;;;;;;;;21.30;34.30;;;;;;497431;239;1141;-38
2022/04/07 08:41:27;;;;;;;;;;;21.30;34.30;;;;;;497578;239;1318;-39
2022/04/07 08:43:26;;;;;;;;;;;21.30;34.20;;;;;;497833;239;3078;-38
2022/04/07 08:45:28;;;;;;;;;;;21.30;34.20;;;;;;498402;239;2201;-38
2022/04/07 08:47:29;;;;;;;;;;;21.40;34.20;;;;;;497831;239;1171;-38
2022/04/07 08:49:30;;;;;;;;;;;21.30;34.10;;;;;;497979;239;1260;-38
2022/04/07 08:51:32;;;;;;;;;;;21.40;34.10;;;;;;498304;239;1205;-39
2022/04/07 08:53:33;;;;;;;;;;;21.30;34.10;;;;;;497508;239;1229;-38
2022/04/07 08:55:35;;;;;;;;;;;21.40;34.10;;;;;;497498;239;1301;-38
2022/04/07 08:57:36;;;;;;;;;;;21.30;34.00;;;;;;497550;239;1163;-38
2022/04/07 08:59:37;;;;;;;;;;;21.30;34.10;;;;;;497587;239;1112;-38
2022/04/07 09:01:39;;;;;;;;;;;21.30;34.10;;;;;;497602;239;1178;-38
2022/04/07 09:03:40;;;;;;;;;;;21.30;34.00;;;;;;497528;239;1217;-38
2022/04/07 09:05:41;;;;;;;;;;;21.30;34.00;;;;;;497582;239;2202;-38
2022/04/07 09:07:43;;;;;;;;;;;21.40;34.10;;;;;;497459;239;1276;-38
2022/04/07 09:09:44;;;;;;;;;;;21.40;34.10;;;;;;497656;239;1203;-38
2022/04/07 09:11:45;;;;;;;;;;;21.40;34.00;;;;;;497495;239;1412;-39
2022/04/07 09:13:47;;;;;;;;;;;21.40;34.00;;;;;;497528;239;1198;-38
2022/04/07 09:15:48;;;;;;;;;;;21.40;34.10;;;;;;497393;239;1319;-38
2022/04/07 09:17:49;;;;;;;;;;;21.40;34.00;;;;;;497509;239;1092;-38
2022/04/07 09:19:51;;;;;;;;;;;21.40;34.00;;;;;;497639;239;1122;-38
2022/04/07 09:21:52;;;;;;;;;;;21.30;33.90;;;;;;497739;239;1326;-38
2022/04/07 09:23:53;;;;;;;;;;;21.40;34.00;;;;;;498061;239;1136;-38
2022/04/07 09:25:55;;;;;;;;;;;21.40;34.00;;;;;;497607;239;2170;-38
2022/04/07 09:28:00;;;;;;;;;;;21.30;34.00;;;;;;497635;239;1161;-38
2022/04/07 09:29:58;;;;;;;;;;;21.40;34.00;;;;;;497311;239;2189;-38
2022/04/07 09:31:59;;;;;;;;;;;21.30;33.90;;;;;;497507;239;1220;-38
2022/04/07 09:34:02;;;;;;;;;;;21.40;34.00;;;;;;497781;239;1064;-38
2022/04/07 09:36:02;;;;;;;;;;;21.40;33.90;;;;;;497525;239;2215;-38
2022/04/07 09:38:04;;;;;;;;;;;21.40;33.90;;;;;;497919;239;1262;-38
2022/04/07 09:40:05;;;;;;;;;;;21.40;33.90;;;;;;497640;239;1217;-38
2022/04/07 09:42:06;;;;;;;;;;;21.30;33.90;;;;;;497773;239;1665;-38
2022/04/07 09:44:09;;;;;;;;;;;21.30;33.90;;;;;;497824;239;1119;-38
2022/04/07 09:46:09;;;;;;;;;;;21.30;33.80;;;;;;497462;239;2184;-38
2022/04/07 09:48:12;;;;;;;;;;;21.40;33.90;;;;;;497923;239;1073;-38
2022/04/07 09:50:17;;;;;;;;;;;21.40;33.80;;;;;;497332;239;1409;-39
2022/04/07 09:52:14;;;;;;;;;;;21.40;33.80;;;;;;497439;239;2174;-38
2022/04/07 09:54:16;;;;;;;;;;;21.40;33.80;;;;;;497524;239;2391;-38
2022/04/07 09:56:16;;;;;;;;;;;21.40;33.80;;;;;;497414;239;2160;-38
2022/04/07 09:58:18;;;;;;;;;;;21.30;33.80;;;;;;498349;239;1026;-38
2022/04/07 10:00:19;;;;;;;;;;;21.40;33.80;;;;;;497603;239;1075;-38
2022/04/07 10:02:21;;;;;;;;;;;21.30;33.80;;;;;;497806;239;1269;-38
2022/04/07 10:04:22;;;;;;;;;;;21.40;33.80;;;;;;497501;239;1070;-38
2022/04/07 10:06:24;;;;;;;;;;;21.40;33.70;;;;;;497762;239;2185;-38
2022/04/07 10:08:25;;;;;;;;;;;21.40;33.80;;;;;;497629;239;1090;-38
2022/04/07 10:10:26;;;;;;;;;;;21.30;33.80;;;;;;497496;239;1194;-38
2022/04/07 10:12:28;;;;;;;;;;;21.30;33.80;;;;;;497482;239;1575;-39
2022/04/07 10:14:29;;;;;;;;;;;21.30;33.80;;;;;;497398;239;1271;-38
2022/04/07 10:16:32;;;;;;;;;;;21.30;33.80;;;;;;498008;239;1155;-39
2022/04/07 10:18:32;;;;;;;;;;;21.40;33.70;;;;;;497801;239;2070;-38
2022/04/07 10:20:33;;;;;;;;;;;21.40;33.80;;;;;;498300;239;1155;-38
2022/04/07 10:22:35;;;;;;;;;;;21.30;33.70;;;;;;497820;239;1077;-38
2022/04/07 10:24:36;;;;;;;;;;;21.30;33.70;;;;;;498259;239;1015;-39
2022/04/07 10:26:37;;;;;;;;;;;21.30;33.70;;;;;;497650;239;2193;-38
2022/04/07 10:28:39;;;;;;;;;;;21.30;33.70;;;;;;498129;239;1044;-38
2022/04/07 10:30:40;;;;;;;;;;;21.30;33.70;;;;;;497562;236;1129;-38
2022/04/07 10:32:41;;;;;;;;;;;21.30;33.70;;;;;;497653;239;1216;-38
2022/04/07 10:34:43;;;;;;;;;;;21.30;33.70;;;;;;497628;239;1094;-38
2022/04/07 10:36:45;;;;;;;;;;;21.40;33.70;;;;;;497547;239;1247;-38
2022/04/07 10:38:46;;;;;;;;;;;21.30;33.70;;;;;;497528;239;1162;-38
2022/04/07 10:40:50;;;;;;;;;;;21.30;33.70;;;;;;497309;239;1207;-39
2022/04/07 10:42:51;;;;;;;;;;;21.30;33.70;;;;;;497948;239;1143;-38
2022/04/07 10:44:52;;;;;;;;;;;21.30;33.70;;;;;;497834;239;1112;-38
2022/04/07 10:46:54;;;;;;;;;;;21.30;33.60;;;;;;497706;239;2180;-39
2022/04/07 10:48:55;;;;;;;;;;;21.30;33.70;;;;;;497602;239;1211;-38
2022/04/07 10:50:56;;;;;;;;;;;21.30;33.70;;;;;;497560;239;1106;-38
2022/04/07 10:52:58;;;;;;;;;;;21.30;33.70;;;;;;497579;239;1230;-38
2022/04/07 10:54:59;;;;;;;;;;;21.30;33.60;;;;;;497568;239;1089;-38
2022/04/07 10:57:01;;;;;;;;;;;21.30;33.60;;;;;;497620;239;1200;-38
2022/04/07 10:59:02;;;;;;;;;;;21.30;33.60;;;;;;497394;239;1072;-39
2022/04/07 11:01:03;;;;;;;;;;;21.30;33.60;;;;;;497515;239;1097;-39
2022/04/07 11:03:04;;;;;;;;;;;21.30;33.60;;;;;;497594;239;1203;-39
2022/04/07 11:05:10;;;;;;;;;;;21.40;33.50;;;;;;497609;239;1084;-39
2022/04/07 11:07:08;;;;;;;;;;;21.40;33.50;;;;;;497440;239;2181;-39
2022/04/07 11:09:09;;;;;;;;;;;21.40;33.50;;;;;;497475;239;1106;-39
2022/04/07 11:11:10;;;;;;;;;;;21.30;33.50;;;;;;497463;239;1252;-39
2022/04/07 11:13:12;;;;;;;;;;;21.30;33.60;;;;;;497509;239;1157;-39
2022/04/07 11:15:13;;;;;;;;;;;21.30;33.50;;;;;;497466;239;1099;-39
2022/04/07 11:17:15;;;;;;;;;;;21.40;33.50;;;;;;497490;239;1233;-39
2022/04/07 11:19:16;;;;;;;;;;;21.40;33.50;;;;;;497627;239;1110;-39
2022/04/07 11:21:18;;;;;;;;;;;21.40;33.40;;;;;;497615;236;1321;-39
2022/04/07 11:23:19;;;;;;;;;;;21.30;33.50;;;;;;497802;239;1101;-39
2022/04/07 11:25:20;;;;;;;;;;;21.40;33.40;;;;;;497435;239;1172;-39
2022/04/07 11:27:23;;;;;;;;;;;21.40;33.50;;;;;;497418;239;2189;-39
2022/04/07 11:29:23;;;;;;;;;;;21.30;33.40;;;;;;497773;239;2306;-39
2022/04/07 11:31:24;;;;;;;;;;;21.40;33.40;;;;;;497849;239;1130;-39
2022/04/07 11:33:26;;;;;;;;;;;21.40;33.40;;;;;;497858;239;1045;-39
2022/04/07 11:35:27;;;;;;;;;;;21.40;33.50;;;;;;497822;239;1131;-39
2022/04/07 11:37:30;;;;;;;;;;;21.40;33.40;;;;;;497498;239;1036;-39
2022/04/07 11:39:32;;;;;;;;;;;21.40;33.40;;;;;;497565;239;2210;-39
2022/04/07 11:41:32;;;;;;;;;;;21.40;33.40;;;;;;497406;239;1954;-39
2022/04/07 11:43:34;;;;;;;;;;;21.30;33.40;;;;;;497576;239;1167;-39
2022/04/07 11:45:35;;;;;;;;;;;21.30;33.40;;;;;;497610;239;2294;-39
2022/04/07 11:47:37;;;;;;;;;;;21.30;33.40;;;;;;497606;239;2110;-39
2022/04/07 11:49:38;;;;;;;;;;;21.30;33.40;;;;;;497472;239;1083;-39
2022/04/07 11:51:40;;;;;;;;;;;21.30;33.40;;;;;;497266;239;1198;-39
2022/04/07 11:53:41;;;;;;;;;;;21.30;33.40;;;;;;497596;239;1139;-39
2022/04/07 11:55:42;;;;;;;;;;;21.40;33.40;;;;;;497616;239;1432;-39
2022/04/07 11:57:44;;;;;;;;;;;21.40;33.40;;;;;;497629;239;1145;-39